sensor_id;sensor_type;location;lat;lon;timestamp;temperature;humidity
56046;DHT22;41913;51.030;3.706;2024-01-10T00:00:01;19.30;62.30
56046;DHT22;41913;51.030;3.706;2024-01-10T00:02:27;19.30;62.30
56046;DHT22;41913;51.030;3.706;2024-01-10T00:04:52;19.20;62.90
56046;DHT22;41913;51.030;3.706;2024-01-10T00:07:18;19.20;62.40
56046;DHT22;41913;51.030;3.706;2024-01-10T00:09:44;19.20;62.50
56046;DHT22;41913;51.030;3.706;2024-01-10T00:12:11;19.20;62.50
56046;DHT22;41913;51.030;3.706;2024-01-10T00:14:37;19.20;62.40
56046;DHT22;41913;51.030;3.706;2024-01-10T00:17:03;19.20;62.30
56046;DHT22;41913;51.030;3.706;2024-01-10T00:19:30;19.20;62.30
56046;DHT22;41913;51.030;3.706;2024-01-10T00:21:56;19.10;62.20
56046;DHT22;41913;51.030;3.706;2024-01-10T00:24:21;19.10;62.30
56046;DHT22;41913;51.030;3.706;2024-01-10T00:26:47;19.10;62.30
56046;DHT22;41913;51.030;3.706;2024-01-10T00:29:13;19.10;62.40
56046;DHT22;41913;51.030;3.706;2024-01-10T00:31:40;19.10;62.50
56046;DHT22;41913;51.030;3.706;2024-01-10T00:34:05;19.10;62.30
56046;DHT22;41913;51.030;3.706;2024-01-10T00:36:31;19.00;62.20
56046;DHT22;41913;51.030;3.706;2024-01-10T00:38:58;19.00;62.10
56046;DHT22;41913;51.030;3.706;2024-01-10T00:41:24;19.10;62.10
56046;DHT22;41913;51.030;3.706;2024-01-10T00:43:49;19.00;62.10
56046;DHT22;41913;51.030;3.706;2024-01-10T00:46:16;19.00;62.20
56046;DHT22;41913;51.030;3.706;2024-01-10T00:48:42;18.90;62.30
56046;DHT22;41913;51.030;3.706;2024-01-10T00:51:08;19.00;62.40
56046;DHT22;41913;51.030;3.706;2024-01-10T00:53:37;18.90;62.40
56046;DHT22;41913;51.030;3.706;2024-01-10T00:56:07;18.90;62.30
56046;DHT22;41913;51.030;3.706;2024-01-10T00:58:33;18.90;62.20
56046;DHT22;41913;51.030;3.706;2024-01-10T01:00:59;18.90;62.10
56046;DHT22;41913;51.030;3.706;2024-01-10T01:03:25;18.90;62.70
56046;DHT22;41913;51.030;3.706;2024-01-10T01:05:50;18.90;62.20
56046;DHT22;41913;51.030;3.706;2024-01-10T01:08:16;18.80;62.20
56046;DHT22;41913;51.030;3.706;2024-01-10T01:10:42;18.80;62.30
56046;DHT22;41913;51.030;3.706;2024-01-10T01:13:08;18.80;62.40
56046;DHT22;41913;51.030;3.706;2024-01-10T01:15:33;18.80;62.30
56046;DHT22;41913;51.030;3.706;2024-01-10T01:17:59;18.80;62.20
56046;DHT22;41913;51.030;3.706;2024-01-10T01:20:25;18.80;62.10
56046;DHT22;41913;51.030;3.706;2024-01-10T01:22:50;18.80;62.10
56046;DHT22;41913;51.030;3.706;2024-01-10T01:25:16;18.80;62.10
56046;DHT22;41913;51.030;3.706;2024-01-10T01:27:42;18.70;62.10
56046;DHT22;41913;51.030;3.706;2024-01-10T01:30:08;18.70;62.30
56046;DHT22;41913;51.030;3.706;2024-01-10T01:32:34;18.70;62.30
56046;DHT22;41913;51.030;3.706;2024-01-10T01:35:00;18.70;62.40
56046;DHT22;41913;51.030;3.706;2024-01-10T01:37:25;18.70;62.40
56046;DHT22;41913;51.030;3.706;2024-01-10T01:39:51;18.70;62.30
56046;DHT22;41913;51.030;3.706;2024-01-10T01:42:17;18.70;62.10
56046;DHT22;41913;51.030;3.706;2024-01-10T01:44:43;18.70;62.10
56046;DHT22;41913;51.030;3.706;2024-01-10T01:47:08;18.60;62.10
56046;DHT22;41913;51.030;3.706;2024-01-10T01:49:34;18.60;62.10
56046;DHT22;41913;51.030;3.706;2024-01-10T01:52:00;18.60;62.20
56046;DHT22;41913;51.030;3.706;2024-01-10T01:54:27;18.60;62.40
56046;DHT22;41913;51.030;3.706;2024-01-10T01:56:52;18.60;62.40
56046;DHT22;41913;51.030;3.706;2024-01-10T01:59:19;18.60;62.40
56046;DHT22;41913;51.030;3.706;2024-01-10T02:01:45;18.60;62.30
56046;DHT22;41913;51.030;3.706;2024-01-10T02:04:11;18.60;62.20
56046;DHT22;41913;51.030;3.706;2024-01-10T02:06:37;18.60;62.10
56046;DHT22;41913;51.030;3.706;2024-01-10T02:09:04;18.60;62.10
56046;DHT22;41913;51.030;3.706;2024-01-10T02:11:30;18.60;62.10
56046;DHT22;41913;51.030;3.706;2024-01-10T02:13:57;18.50;62.20
56046;DHT22;41913;51.030;3.706;2024-01-10T02:16:23;18.50;62.30
56046;DHT22;41913;51.030;3.706;2024-01-10T02:18:50;18.50;62.40
56046;DHT22;41913;51.030;3.706;2024-01-10T02:21:20;18.50;62.30
56046;DHT22;41913;51.030;3.706;2024-01-10T02:23:46;18.50;62.80
56046;DHT22;41913;51.030;3.706;2024-01-10T02:26:11;18.50;62.10
56046;DHT22;41913;51.030;3.706;2024-01-10T02:28:37;18.50;62.00
56046;DHT22;41913;51.030;3.706;2024-01-10T02:31:03;18.50;62.00
56046;DHT22;41913;51.030;3.706;2024-01-10T02:33:29;18.50;62.10
56046;DHT22;41913;51.030;3.706;2024-01-10T02:35:54;18.40;62.10
56046;DHT22;41913;51.030;3.706;2024-01-10T02:38:20;18.40;62.40
56046;DHT22;41913;51.030;3.706;2024-01-10T02:40:49;18.40;62.40
56046;DHT22;41913;51.030;3.706;2024-01-10T02:43:14;18.40;62.90
56046;DHT22;41913;51.030;3.706;2024-01-10T02:45:40;18.40;62.20
56046;DHT22;41913;51.030;3.706;2024-01-10T02:48:06;18.40;62.10
56046;DHT22;41913;51.030;3.706;2024-01-10T02:50:32;18.40;62.00
56046;DHT22;41913;51.030;3.706;2024-01-10T02:52:58;18.40;62.00
56046;DHT22;41913;51.030;3.706;2024-01-10T02:55:23;18.30;62.00
56046;DHT22;41913;51.030;3.706;2024-01-10T02:57:49;18.30;62.00
56046;DHT22;41913;51.030;3.706;2024-01-10T03:00:15;18.30;62.20
56046;DHT22;41913;51.030;3.706;2024-01-10T03:02:41;18.40;62.20
56046;DHT22;41913;51.030;3.706;2024-01-10T03:05:07;18.30;62.20
56046;DHT22;41913;51.030;3.706;2024-01-10T03:07:32;18.40;62.10
56046;DHT22;41913;51.030;3.706;2024-01-10T03:09:58;18.30;62.00
56046;DHT22;41913;51.030;3.706;2024-01-10T03:12:24;18.30;62.00
56046;DHT22;41913;51.030;3.706;2024-01-10T03:14:50;18.30;62.00
56046;DHT22;41913;51.030;3.706;2024-01-10T03:17:15;18.30;62.00
56046;DHT22;41913;51.030;3.706;2024-01-10T03:19:41;18.30;62.00
56046;DHT22;41913;51.030;3.706;2024-01-10T03:22:10;18.30;62.20
56046;DHT22;41913;51.030;3.706;2024-01-10T03:24:38;18.30;62.30
56046;DHT22;41913;51.030;3.706;2024-01-10T03:27:04;18.30;62.30
56046;DHT22;41913;51.030;3.706;2024-01-10T03:29:30;18.30;62.10
56046;DHT22;41913;51.030;3.706;2024-01-10T03:31:56;18.30;62.00
56046;DHT22;41913;51.030;3.706;2024-01-10T03:34:22;18.20;61.90
56046;DHT22;41913;51.030;3.706;2024-01-10T03:36:47;18.20;61.90
56046;DHT22;41913;51.030;3.706;2024-01-10T03:39:13;18.20;61.90
56046;DHT22;41913;51.030;3.706;2024-01-10T03:41:39;18.20;62.00
56046;DHT22;41913;51.030;3.706;2024-01-10T03:44:04;18.20;62.10
56046;DHT22;41913;51.030;3.706;2024-01-10T03:46:31;18.20;62.20
56046;DHT22;41913;51.030;3.706;2024-01-10T03:48:56;18.20;62.10
56046;DHT22;41913;51.030;3.706;2024-01-10T03:51:22;18.20;62.00
56046;DHT22;41913;51.030;3.706;2024-01-10T03:53:49;18.20;62.00
56046;DHT22;41913;51.030;3.706;2024-01-10T03:56:15;18.20;61.90
56046;DHT22;41913;51.030;3.706;2024-01-10T03:58:41;18.10;61.80
56046;DHT22;41913;51.030;3.706;2024-01-10T04:01:07;18.10;61.80
56046;DHT22;41913;51.030;3.706;2024-01-10T04:03:33;18.10;61.90
56046;DHT22;41913;51.030;3.706;2024-01-10T04:06:00;18.10;62.00
56046;DHT22;41913;51.030;3.706;2024-01-10T04:08:26;18.10;62.10
56046;DHT22;41913;51.030;3.706;2024-01-10T04:10:52;18.10;62.00
56046;DHT22;41913;51.030;3.706;2024-01-10T04:13:18;18.10;62.00
56046;DHT22;41913;51.030;3.706;2024-01-10T04:15:43;18.20;61.90
56046;DHT22;41913;51.030;3.706;2024-01-10T04:18:09;18.10;61.80
56046;DHT22;41913;51.030;3.706;2024-01-10T04:20:35;18.10;61.70
56046;DHT22;41913;51.030;3.706;2024-01-10T04:23:01;18.10;61.70
56046;DHT22;41913;51.030;3.706;2024-01-10T04:25:26;18.00;61.70
56046;DHT22;41913;51.030;3.706;2024-01-10T04:27:52;18.10;61.90
56046;DHT22;41913;51.030;3.706;2024-01-10T04:30:18;18.00;61.90
56046;DHT22;41913;51.030;3.706;2024-01-10T04:32:44;18.00;61.90
56046;DHT22;41913;51.030;3.706;2024-01-10T04:35:10;18.00;61.90
56046;DHT22;41913;51.030;3.706;2024-01-10T04:37:35;18.00;61.80
56046;DHT22;41913;51.030;3.706;2024-01-10T04:40:01;18.00;61.70
56046;DHT22;41913;51.030;3.706;2024-01-10T04:42:27;18.00;61.60
56046;DHT22;41913;51.030;3.706;2024-01-10T04:44:53;18.00;61.60
56046;DHT22;41913;51.030;3.706;2024-01-10T04:47:19;18.00;61.60
56046;DHT22;41913;51.030;3.706;2024-01-10T04:49:45;18.00;61.80
56046;DHT22;41913;51.030;3.706;2024-01-10T04:52:11;18.00;61.90
56046;DHT22;41913;51.030;3.706;2024-01-10T04:54:37;18.00;61.90
56046;DHT22;41913;51.030;3.706;2024-01-10T04:57:04;18.00;61.90
56046;DHT22;41913;51.030;3.706;2024-01-10T04:59:29;18.00;61.80
56046;DHT22;41913;51.030;3.706;2024-01-10T05:01:56;18.00;61.70
56046;DHT22;41913;51.030;3.706;2024-01-10T05:04:22;17.90;61.60
56046;DHT22;41913;51.030;3.706;2024-01-10T05:06:48;17.90;61.70
56046;DHT22;41913;51.030;3.706;2024-01-10T05:09:13;17.90;61.70
56046;DHT22;41913;51.030;3.706;2024-01-10T05:11:40;17.90;61.80
56046;DHT22;41913;51.030;3.706;2024-01-10T05:14:06;17.90;61.90
56046;DHT22;41913;51.030;3.706;2024-01-10T05:16:32;17.90;61.90
56046;DHT22;41913;51.030;3.706;2024-01-10T05:19:00;17.90;61.80
56046;DHT22;41913;51.030;3.706;2024-01-10T05:21:29;17.90;61.70
56046;DHT22;41913;51.030;3.706;2024-01-10T05:23:56;17.90;61.80
56046;DHT22;41913;51.030;3.706;2024-01-10T05:26:21;17.90;61.70
56046;DHT22;41913;51.030;3.706;2024-01-10T05:28:47;17.90;61.80
56046;DHT22;41913;51.030;3.706;2024-01-10T05:31:13;17.90;61.80
56046;DHT22;41913;51.030;3.706;2024-01-10T05:33:39;17.90;61.90
56046;DHT22;41913;51.030;3.706;2024-01-10T05:36:06;17.80;61.90
56046;DHT22;41913;51.030;3.706;2024-01-10T05:38:32;17.90;62.00
56046;DHT22;41913;51.030;3.706;2024-01-10T05:40:57;17.90;61.90
56046;DHT22;41913;51.030;3.706;2024-01-10T05:43:23;17.90;61.90
56046;DHT22;41913;51.030;3.706;2024-01-10T05:45:49;17.90;61.80
56046;DHT22;41913;51.030;3.706;2024-01-10T05:48:15;17.80;61.70
56046;DHT22;41913;51.030;3.706;2024-01-10T05:50:42;17.80;61.60
56046;DHT22;41913;51.030;3.706;2024-01-10T05:53:08;17.80;61.60
56046;DHT22;41913;51.030;3.706;2024-01-10T05:55:35;17.80;61.70
56046;DHT22;41913;51.030;3.706;2024-01-10T05:58:02;17.80;61.80
56046;DHT22;41913;51.030;3.706;2024-01-10T06:00:28;17.80;61.80
56046;DHT22;41913;51.030;3.706;2024-01-10T06:02:54;17.80;61.80
56046;DHT22;41913;51.030;3.706;2024-01-10T06:05:19;17.80;61.70
56046;DHT22;41913;51.030;3.706;2024-01-10T06:07:45;17.80;61.70
56046;DHT22;41913;51.030;3.706;2024-01-10T06:10:11;17.80;61.60
56046;DHT22;41913;51.030;3.706;2024-01-10T06:12:37;17.70;61.50
56046;DHT22;41913;51.030;3.706;2024-01-10T06:15:04;17.80;61.50
56046;DHT22;41913;51.030;3.706;2024-01-10T06:17:29;17.70;61.60
56046;DHT22;41913;51.030;3.706;2024-01-10T06:19:57;17.70;61.70
56046;DHT22;41913;51.030;3.706;2024-01-10T06:22:25;17.70;61.70
56046;DHT22;41913;51.030;3.706;2024-01-10T06:24:51;17.70;61.70
56046;DHT22;41913;51.030;3.706;2024-01-10T06:27:17;17.80;61.40
56046;DHT22;41913;51.030;3.706;2024-01-10T06:29:46;17.70;61.00
56046;DHT22;41913;51.030;3.706;2024-01-10T06:32:12;17.70;61.20
56046;DHT22;41913;51.030;3.706;2024-01-10T06:34:37;17.70;61.30
56046;DHT22;41913;51.030;3.706;2024-01-10T06:37:03;17.70;61.00
56046;DHT22;41913;51.030;3.706;2024-01-10T06:39:29;17.70;61.60
56046;DHT22;41913;51.030;3.706;2024-01-10T06:41:55;17.80;63.10
56046;DHT22;41913;51.030;3.706;2024-01-10T06:44:20;17.80;65.70
56046;DHT22;41913;51.030;3.706;2024-01-10T06:46:46;17.90;67.60
56046;DHT22;41913;51.030;3.706;2024-01-10T06:49:12;17.90;68.10
56046;DHT22;41913;51.030;3.706;2024-01-10T06:51:38;18.00;69.60
56046;DHT22;41913;51.030;3.706;2024-01-10T06:54:04;18.00;71.90
56046;DHT22;41913;51.030;3.706;2024-01-10T06:56:31;18.10;73.30
56046;DHT22;41913;51.030;3.706;2024-01-10T06:58:58;18.20;74.20
56046;DHT22;41913;51.030;3.706;2024-01-10T07:01:24;18.30;74.00
56046;DHT22;41913;51.030;3.706;2024-01-10T07:03:51;18.30;73.10
56046;DHT22;41913;51.030;3.706;2024-01-10T07:06:17;18.30;71.90
56046;DHT22;41913;51.030;3.706;2024-01-10T07:08:43;18.30;70.70
56046;DHT22;41913;51.030;3.706;2024-01-10T07:11:10;18.40;69.80
56046;DHT22;41913;51.030;3.706;2024-01-10T07:13:40;18.40;68.90
56046;DHT22;41913;51.030;3.706;2024-01-10T07:16:06;18.50;68.70
56046;DHT22;41913;51.030;3.706;2024-01-10T07:18:32;18.50;68.70
56046;DHT22;41913;51.030;3.706;2024-01-10T07:20:59;18.50;67.90
56046;DHT22;41913;51.030;3.706;2024-01-10T07:23:25;18.60;66.90
56046;DHT22;41913;51.030;3.706;2024-01-10T07:25:51;18.60;66.20
56046;DHT22;41913;51.030;3.706;2024-01-10T07:28:18;18.60;65.60
56046;DHT22;41913;51.030;3.706;2024-01-10T07:30:44;18.60;65.50
56046;DHT22;41913;51.030;3.706;2024-01-10T07:33:10;18.60;65.10
56046;DHT22;41913;51.030;3.706;2024-01-10T07:35:37;18.60;64.80
56046;DHT22;41913;51.030;3.706;2024-01-10T07:38:06;18.70;64.80
56046;DHT22;41913;51.030;3.706;2024-01-10T07:40:35;18.70;65.00
56046;DHT22;41913;51.030;3.706;2024-01-10T07:43:01;18.70;64.90
56046;DHT22;41913;51.030;3.706;2024-01-10T07:45:27;18.80;65.20
56046;DHT22;41913;51.030;3.706;2024-01-10T07:47:53;18.80;65.30
56046;DHT22;41913;51.030;3.706;2024-01-10T07:50:20;18.80;65.40
56046;DHT22;41913;51.030;3.706;2024-01-10T07:52:46;18.80;65.30
56046;DHT22;41913;51.030;3.706;2024-01-10T07:55:12;18.80;64.70
56046;DHT22;41913;51.030;3.706;2024-01-10T07:57:38;18.70;63.90
56046;DHT22;41913;51.030;3.706;2024-01-10T08:00:05;18.70;63.30
56046;DHT22;41913;51.030;3.706;2024-01-10T08:02:33;18.70;62.80
56046;DHT22;41913;51.030;3.706;2024-01-10T08:05:00;18.60;62.60
56046;DHT22;41913;51.030;3.706;2024-01-10T08:07:26;18.60;62.70
56046;DHT22;41913;51.030;3.706;2024-01-10T08:09:52;18.60;63.00
56046;DHT22;41913;51.030;3.706;2024-01-10T08:12:18;18.60;63.30
56046;DHT22;41913;51.030;3.706;2024-01-10T08:14:44;18.60;63.50
56046;DHT22;41913;51.030;3.706;2024-01-10T08:17:15;18.70;63.80
56046;DHT22;41913;51.030;3.706;2024-01-10T08:19:42;18.60;64.00
56046;DHT22;41913;51.030;3.706;2024-01-10T08:22:08;18.70;64.30
56046;DHT22;41913;51.030;3.706;2024-01-10T08:24:34;18.70;64.40
56046;DHT22;41913;51.030;3.706;2024-01-10T08:26:59;18.70;64.60
56046;DHT22;41913;51.030;3.706;2024-01-10T08:29:25;18.70;64.60
56046;DHT22;41913;51.030;3.706;2024-01-10T08:31:56;18.70;64.60
56046;DHT22;41913;51.030;3.706;2024-01-10T08:34:22;18.70;64.00
56046;DHT22;41913;51.030;3.706;2024-01-10T08:36:48;18.60;63.40
56046;DHT22;41913;51.030;3.706;2024-01-10T08:39:17;18.60;62.90
56046;DHT22;41913;51.030;3.706;2024-01-10T08:41:43;18.60;62.50
56046;DHT22;41913;51.030;3.706;2024-01-10T08:44:10;18.50;62.50
56046;DHT22;41913;51.030;3.706;2024-01-10T08:46:36;18.50;62.60
56046;DHT22;41913;51.030;3.706;2024-01-10T08:49:02;18.50;62.70
56046;DHT22;41913;51.030;3.706;2024-01-10T08:51:28;18.50;63.10
56046;DHT22;41913;51.030;3.706;2024-01-10T08:53:54;18.50;63.20
56046;DHT22;41913;51.030;3.706;2024-01-10T08:56:20;18.50;63.40
56046;DHT22;41913;51.030;3.706;2024-01-10T08:58:46;18.50;63.50
56046;DHT22;41913;51.030;3.706;2024-01-10T09:01:12;18.60;63.60
56046;DHT22;41913;51.030;3.706;2024-01-10T09:03:38;18.50;64.00
56046;DHT22;41913;51.030;3.706;2024-01-10T09:06:04;18.60;64.40
56046;DHT22;41913;51.030;3.706;2024-01-10T09:08:30;18.60;64.40
56046;DHT22;41913;51.030;3.706;2024-01-10T09:10:56;18.60;64.50
56046;DHT22;41913;51.030;3.706;2024-01-10T09:13:22;18.60;64.20
56046;DHT22;41913;51.030;3.706;2024-01-10T09:15:48;18.60;64.00
56046;DHT22;41913;51.030;3.706;2024-01-10T09:18:14;18.50;63.40
56046;DHT22;41913;51.030;3.706;2024-01-10T09:20:39;18.50;63.00
56046;DHT22;41913;51.030;3.706;2024-01-10T09:23:05;18.50;62.70
56046;DHT22;41913;51.030;3.706;2024-01-10T09:25:31;18.40;62.50
56046;DHT22;41913;51.030;3.706;2024-01-10T09:27:57;18.50;62.90
56046;DHT22;41913;51.030;3.706;2024-01-10T09:30:23;18.40;62.90
56046;DHT22;41913;51.030;3.706;2024-01-10T09:32:49;18.40;63.10
56046;DHT22;41913;51.030;3.706;2024-01-10T09:35:15;18.40;63.50
56046;DHT22;41913;51.030;3.706;2024-01-10T09:37:41;18.40;63.80
56046;DHT22;41913;51.030;3.706;2024-01-10T09:40:07;18.50;64.00
56046;DHT22;41913;51.030;3.706;2024-01-10T09:42:34;18.50;64.20
56046;DHT22;41913;51.030;3.706;2024-01-10T09:45:03;18.50;64.30
56046;DHT22;41913;51.030;3.706;2024-01-10T09:47:30;18.50;64.40
56046;DHT22;41913;51.030;3.706;2024-01-10T09:49:57;18.50;64.50
56046;DHT22;41913;51.030;3.706;2024-01-10T09:52:27;18.50;64.40
56046;DHT22;41913;51.030;3.706;2024-01-10T09:54:55;18.50;64.70
56046;DHT22;41913;51.030;3.706;2024-01-10T09:57:24;18.50;64.00
56046;DHT22;41913;51.030;3.706;2024-01-10T09:59:51;18.50;63.50
56046;DHT22;41913;51.030;3.706;2024-01-10T10:02:19;18.40;63.40
56046;DHT22;41913;51.030;3.706;2024-01-10T10:05:14;18.40;63.80
56046;DHT22;41913;51.030;3.706;2024-01-10T10:07:51;18.50;64.00
56046;DHT22;41913;51.030;3.706;2024-01-10T10:10:20;18.50;63.70
56046;DHT22;41913;51.030;3.706;2024-01-10T10:12:47;18.50;63.60
56046;DHT22;41913;51.030;3.706;2024-01-10T10:15:16;18.50;63.60
56046;DHT22;41913;51.030;3.706;2024-01-10T10:17:44;18.50;63.60
56046;DHT22;41913;51.030;3.706;2024-01-10T10:20:24;18.50;63.70
56046;DHT22;41913;51.030;3.706;2024-01-10T10:23:06;18.50;63.50
56046;DHT22;41913;51.030;3.706;2024-01-10T10:25:45;18.50;63.50
56046;DHT22;41913;51.030;3.706;2024-01-10T10:28:13;18.50;63.70
56046;DHT22;41913;51.030;3.706;2024-01-10T10:30:39;18.50;63.60
56046;DHT22;41913;51.030;3.706;2024-01-10T10:33:05;18.50;63.60
56046;DHT22;41913;51.030;3.706;2024-01-10T10:35:34;18.50;63.40
56046;DHT22;41913;51.030;3.706;2024-01-10T10:38:00;18.50;63.20
56046;DHT22;41913;51.030;3.706;2024-01-10T10:40:26;18.40;63.00
56046;DHT22;41913;51.030;3.706;2024-01-10T10:42:55;18.40;62.90
56046;DHT22;41913;51.030;3.706;2024-01-10T10:45:24;18.40;62.90
56046;DHT22;41913;51.030;3.706;2024-01-10T10:47:58;18.40;62.90
56046;DHT22;41913;51.030;3.706;2024-01-10T10:50:28;18.40;63.00
56046;DHT22;41913;51.030;3.706;2024-01-10T10:52:55;18.40;63.10
56046;DHT22;41913;51.030;3.706;2024-01-10T10:55:22;18.50;63.30
56046;DHT22;41913;51.030;3.706;2024-01-10T10:57:49;18.50;63.30
56046;DHT22;41913;51.030;3.706;2024-01-10T11:00:19;18.50;63.30
56046;DHT22;41913;51.030;3.706;2024-01-10T11:02:46;18.50;63.40
56046;DHT22;41913;51.030;3.706;2024-01-10T11:05:12;18.50;63.60
56046;DHT22;41913;51.030;3.706;2024-01-10T11:07:40;18.50;63.60
56046;DHT22;41913;51.030;3.706;2024-01-10T11:10:12;18.50;63.60
56046;DHT22;41913;51.030;3.706;2024-01-10T11:21:23;18.40;62.80
56046;DHT22;41913;51.030;3.706;2024-01-10T11:23:58;18.40;62.80
56046;DHT22;41913;51.030;3.706;2024-01-10T11:26:24;18.40;62.80
56046;DHT22;41913;51.030;3.706;2024-01-10T11:28:50;18.40;63.00
56046;DHT22;41913;51.030;3.706;2024-01-10T11:31:27;18.40;63.00
56046;DHT22;41913;51.030;3.706;2024-01-10T11:33:56;18.40;63.00
56046;DHT22;41913;51.030;3.706;2024-01-10T11:36:23;18.40;63.20
56046;DHT22;41913;51.030;3.706;2024-01-10T11:41:24;18.50;63.30
56046;DHT22;41913;51.030;3.706;2024-01-10T11:46:46;18.50;63.30
56046;DHT22;41913;51.030;3.706;2024-01-10T11:49:17;18.50;63.30
56046;DHT22;41913;51.030;3.706;2024-01-10T11:54:09;18.40;63.00
56046;DHT22;41913;51.030;3.706;2024-01-10T11:56:39;18.40;62.80
56046;DHT22;41913;51.030;3.706;2024-01-10T11:59:10;18.40;63.10
56046;DHT22;41913;51.030;3.706;2024-01-10T12:01:37;18.40;63.50
56046;DHT22;41913;51.030;3.706;2024-01-10T12:04:04;18.40;63.90
56046;DHT22;41913;51.030;3.706;2024-01-10T12:06:32;18.40;64.10
56046;DHT22;41913;51.030;3.706;2024-01-10T12:08:58;18.40;64.30
56046;DHT22;41913;51.030;3.706;2024-01-10T12:11:25;18.40;64.40
56046;DHT22;41913;51.030;3.706;2024-01-10T12:13:51;18.40;64.60
56046;DHT22;41913;51.030;3.706;2024-01-10T12:16:16;18.50;64.70
56046;DHT22;41913;51.030;3.706;2024-01-10T12:18:43;18.50;64.70
56046;DHT22;41913;51.030;3.706;2024-01-10T12:21:10;18.50;64.90
56046;DHT22;41913;51.030;3.706;2024-01-10T12:23:36;18.50;65.00
56046;DHT22;41913;51.030;3.706;2024-01-10T12:26:05;18.50;64.80
56046;DHT22;41913;51.030;3.706;2024-01-10T12:28:34;18.50;64.20
56046;DHT22;41913;51.030;3.706;2024-01-10T12:31:03;18.50;63.90
56046;DHT22;41913;51.030;3.706;2024-01-10T12:33:30;18.50;63.50
56046;DHT22;41913;51.030;3.706;2024-01-10T12:36:07;18.40;63.20
56046;DHT22;41913;51.030;3.706;2024-01-10T12:38:33;18.40;63.30
56046;DHT22;41913;51.030;3.706;2024-01-10T12:41:00;18.40;63.30
56046;DHT22;41913;51.030;3.706;2024-01-10T12:43:26;18.40;63.50
56046;DHT22;41913;51.030;3.706;2024-01-10T12:46:09;18.40;64.00
56046;DHT22;41913;51.030;3.706;2024-01-10T12:48:40;18.50;64.80
56046;DHT22;41913;51.030;3.706;2024-01-10T12:51:10;18.50;65.30
56046;DHT22;41913;51.030;3.706;2024-01-10T12:53:42;18.50;65.30
56046;DHT22;41913;51.030;3.706;2024-01-10T12:56:08;18.50;65.00
56046;DHT22;41913;51.030;3.706;2024-01-10T12:58:35;18.50;64.50
56046;DHT22;41913;51.030;3.706;2024-01-10T13:01:05;18.50;63.80
56046;DHT22;41913;51.030;3.706;2024-01-10T13:03:31;18.50;63.60
56046;DHT22;41913;51.030;3.706;2024-01-10T13:05:58;18.60;63.60
56046;DHT22;41913;51.030;3.706;2024-01-10T13:08:24;18.60;63.60
56046;DHT22;41913;51.030;3.706;2024-01-10T13:10:50;18.50;63.40
56046;DHT22;41913;51.030;3.706;2024-01-10T13:13:16;18.50;63.10
56046;DHT22;41913;51.030;3.706;2024-01-10T13:15:46;18.50;62.60
56046;DHT22;41913;51.030;3.706;2024-01-10T13:18:11;18.50;62.40
56046;DHT22;41913;51.030;3.706;2024-01-10T13:20:37;18.50;62.40
56046;DHT22;41913;51.030;3.706;2024-01-10T13:23:04;18.40;62.40
56046;DHT22;41913;51.030;3.706;2024-01-10T13:25:30;18.40;62.40
56046;DHT22;41913;51.030;3.706;2024-01-10T13:27:56;18.40;62.30
56046;DHT22;41913;51.030;3.706;2024-01-10T13:30:23;18.40;62.30
56046;DHT22;41913;51.030;3.706;2024-01-10T13:32:49;18.40;62.30
56046;DHT22;41913;51.030;3.706;2024-01-10T13:35:15;18.40;62.20
56046;DHT22;41913;51.030;3.706;2024-01-10T13:37:45;18.40;62.30
56046;DHT22;41913;51.030;3.706;2024-01-10T13:40:11;18.40;62.10
56046;DHT22;41913;51.030;3.706;2024-01-10T13:42:41;18.40;62.10
56046;DHT22;41913;51.030;3.706;2024-01-10T13:45:09;18.40;62.00
56046;DHT22;41913;51.030;3.706;2024-01-10T13:47:38;18.50;62.00
56046;DHT22;41913;51.030;3.706;2024-01-10T13:50:05;18.50;62.00
56046;DHT22;41913;51.030;3.706;2024-01-10T13:52:34;18.40;61.80
56046;DHT22;41913;51.030;3.706;2024-01-10T13:55:00;18.50;61.60
56046;DHT22;41913;51.030;3.706;2024-01-10T13:57:27;18.50;61.50
56046;DHT22;41913;51.030;3.706;2024-01-10T13:59:53;18.50;61.30
56046;DHT22;41913;51.030;3.706;2024-01-10T14:02:25;18.50;61.10
56046;DHT22;41913;51.030;3.706;2024-01-10T14:04:52;18.40;60.90
56046;DHT22;41913;51.030;3.706;2024-01-10T14:07:19;18.40;60.70
56046;DHT22;41913;51.030;3.706;2024-01-10T14:09:45;18.30;60.70
56046;DHT22;41913;51.030;3.706;2024-01-10T14:12:12;18.30;60.70
56046;DHT22;41913;51.030;3.706;2024-01-10T14:14:38;18.30;60.80
56046;DHT22;41913;51.030;3.706;2024-01-10T14:17:05;18.30;60.80
56046;DHT22;41913;51.030;3.706;2024-01-10T14:19:33;18.30;60.90
56046;DHT22;41913;51.030;3.706;2024-01-10T14:21:59;18.30;61.10
56046;DHT22;41913;51.030;3.706;2024-01-10T14:24:25;18.30;61.20
56046;DHT22;41913;51.030;3.706;2024-01-10T14:26:51;18.30;60.60
56046;DHT22;41913;51.030;3.706;2024-01-10T14:29:17;18.30;60.50
56046;DHT22;41913;51.030;3.706;2024-01-10T14:31:42;18.30;60.40
56046;DHT22;41913;51.030;3.706;2024-01-10T14:34:08;18.30;60.30
56046;DHT22;41913;51.030;3.706;2024-01-10T14:36:36;18.30;60.30
56046;DHT22;41913;51.030;3.706;2024-01-10T14:39:02;18.30;60.40
56046;DHT22;41913;51.030;3.706;2024-01-10T14:41:30;18.30;60.40
56046;DHT22;41913;51.030;3.706;2024-01-10T14:43:56;18.30;60.50
56046;DHT22;41913;51.030;3.706;2024-01-10T14:46:22;18.30;60.60
56046;DHT22;41913;51.030;3.706;2024-01-10T14:48:48;18.20;60.40
56046;DHT22;41913;51.030;3.706;2024-01-10T14:51:14;18.30;60.60
56046;DHT22;41913;51.030;3.706;2024-01-10T14:53:40;18.30;60.80
56046;DHT22;41913;51.030;3.706;2024-01-10T14:56:06;18.30;60.70
56046;DHT22;41913;51.030;3.706;2024-01-10T14:58:33;18.20;60.70
56046;DHT22;41913;51.030;3.706;2024-01-10T15:00:59;18.20;60.90
56046;DHT22;41913;51.030;3.706;2024-01-10T15:03:24;18.20;61.00
56046;DHT22;41913;51.030;3.706;2024-01-10T15:05:51;18.20;61.10
56046;DHT22;41913;51.030;3.706;2024-01-10T15:08:19;18.20;61.20
56046;DHT22;41913;51.030;3.706;2024-01-10T15:10:45;18.20;61.30
56046;DHT22;41913;51.030;3.706;2024-01-10T15:13:11;18.20;61.40
56046;DHT22;41913;51.030;3.706;2024-01-10T15:15:38;18.20;61.50
56046;DHT22;41913;51.030;3.706;2024-01-10T15:18:05;18.20;61.50
56046;DHT22;41913;51.030;3.706;2024-01-10T15:20:31;18.20;61.50
56046;DHT22;41913;51.030;3.706;2024-01-10T15:22:57;18.20;61.40
56046;DHT22;41913;51.030;3.706;2024-01-10T15:25:24;18.20;61.50
56046;DHT22;41913;51.030;3.706;2024-01-10T15:27:51;18.20;61.60
56046;DHT22;41913;51.030;3.706;2024-01-10T15:30:17;18.20;61.60
56046;DHT22;41913;51.030;3.706;2024-01-10T15:32:47;18.20;61.60
56046;DHT22;41913;51.030;3.706;2024-01-10T15:35:14;18.20;61.70
56046;DHT22;41913;51.030;3.706;2024-01-10T15:37:40;18.20;61.60
56046;DHT22;41913;51.030;3.706;2024-01-10T15:40:11;18.20;61.80
56046;DHT22;41913;51.030;3.706;2024-01-10T15:42:43;18.20;62.10